createdAt,value
2022-10-23T00:01:38.992Z,18.90
2022-10-23T00:04:07.836Z,20.17
2022-10-23T00:06:35.692Z,20.30
2022-10-23T00:09:04.233Z,19.65
2022-10-23T00:11:32.047Z,19.08
2022-10-23T00:14:00.459Z,20.38
2022-10-23T00:16:29.660Z,20.33
2022-10-23T00:18:57.169Z,19.52
2022-10-23T00:21:25.346Z,19.38
2022-10-23T00:23:52.971Z,19.17
2022-10-23T00:26:20.691Z,18.92
2022-10-23T00:28:49.216Z,19.55
2022-10-23T00:31:17.101Z,18.02
2022-10-23T00:33:46.333Z,17.83
2022-10-23T00:36:14.781Z,18.33
2022-10-23T00:38:44.565Z,19.15
2022-10-23T00:41:15.617Z,18.17
2022-10-23T00:44:01.320Z,17.35
2022-10-23T00:46:28.900Z,19.73
2022-10-23T00:48:58.730Z,18.77
2022-10-23T00:51:28.516Z,18.98
2022-10-23T00:54:06.740Z,20.17
2022-10-23T00:56:47.265Z,23.20
2022-10-23T00:59:17.559Z,23.10
2022-10-23T01:01:45.270Z,22.98
2022-10-23T01:04:14.180Z,21.25
2022-10-23T01:06:44.720Z,23.98
2022-10-23T01:09:16.956Z,21.80
2022-10-23T01:11:46.993Z,24.90
2022-10-23T01:14:18.518Z,24.10
2022-10-23T01:16:52.043Z,25.95
2022-10-23T01:19:27.568Z,25.83
2022-10-23T01:21:57.620Z,26.35
2022-10-23T01:24:38.737Z,26.30
2022-10-23T01:27:14.737Z,26.52
2022-10-23T01:29:43.727Z,26.45
2022-10-23T01:32:13.304Z,28.88
2022-10-23T01:34:45.623Z,28.63
2022-10-23T01:37:14.673Z,26.48
2022-10-23T01:39:47.783Z,28.52
2022-10-23T01:42:18.683Z,27.30
2022-10-23T01:44:47.921Z,26.13
2022-10-23T01:47:18.203Z,25.48
2022-10-23T01:49:59.421Z,26.98
2022-10-23T01:52:27.867Z,24.77
2022-10-23T01:54:57.743Z,24.38
2022-10-23T01:57:27.343Z,28.45
2022-10-23T01:59:58.987Z,25.50
2022-10-23T02:02:27.632Z,25.30
2022-10-23T02:04:58.026Z,23.27
2022-10-23T02:07:25.611Z,23.75
2022-10-23T02:09:53.303Z,24.17
2022-10-23T02:15:03.296Z,23.35
2022-10-23T02:17:34.177Z,23.70
2022-10-23T02:20:06.501Z,23.77
2022-10-23T02:22:37.993Z,24.85
2022-10-23T02:25:10.290Z,23.80
2022-10-23T02:27:43.217Z,26.00
2022-10-23T02:30:14.403Z,23.20
2022-10-23T02:32:46.912Z,24.65
2022-10-23T02:35:16.369Z,24.70
2022-10-23T02:37:44.293Z,23.95
2022-10-23T02:40:12.707Z,22.90
2022-10-23T02:42:51.423Z,23.42
2022-10-23T02:45:22.061Z,24.35
2022-10-23T02:47:53.111Z,23.05
2022-10-23T02:50:24.316Z,23.42
2022-10-23T02:52:56.244Z,23.30
2022-10-23T02:55:29.336Z,24.30
2022-10-23T02:57:58.735Z,23.00
2022-10-23T03:00:30.958Z,23.15
2022-10-23T03:03:00.061Z,23.92
2022-10-23T03:05:31.572Z,25.30
2022-10-23T03:07:59.209Z,25.70
2022-10-23T03:10:26.824Z,23.45
2022-10-23T03:12:54.362Z,25.98
2022-10-23T03:15:22.321Z,29.33
2022-10-23T03:17:52.812Z,24.67
2022-10-23T03:20:20.314Z,25.38
2022-10-23T03:22:47.942Z,22.58
2022-10-23T03:25:15.561Z,25.75
2022-10-23T03:27:43.096Z,24.27
2022-10-23T03:30:15.296Z,24.02
2022-10-23T03:32:43.221Z,23.35
2022-10-23T03:35:13.719Z,24.05
2022-10-23T03:37:41.700Z,24.25
2022-10-23T03:40:11.224Z,25.13
2022-10-23T03:42:38.731Z,23.65
2022-10-23T03:45:06.870Z,24.40
2022-10-23T03:47:35.589Z,24.55
2022-10-23T03:50:03.358Z,25.00
2022-10-23T03:52:35.433Z,25.38
2022-10-23T03:55:03.084Z,25.23
2022-10-23T03:57:30.561Z,24.42
2022-10-23T03:59:58.520Z,25.73
2022-10-23T04:02:30.918Z,25.42
2022-10-23T04:04:58.432Z,25.05
2022-10-23T04:07:26.132Z,25.25
2022-10-23T04:09:56.073Z,24.00
2022-10-23T04:12:24.771Z,24.45
2022-10-23T04:14:52.755Z,24.77
2022-10-23T04:17:20.342Z,24.95
2022-10-23T04:19:50.341Z,25.02
2022-10-23T04:22:17.867Z,24.33
2022-10-23T04:24:46.696Z,25.67
2022-10-23T04:27:19.969Z,23.45
2022-10-23T04:29:47.699Z,22.83
2022-10-23T04:32:15.172Z,23.40
2022-10-23T04:34:44.825Z,24.67
2022-10-23T04:37:12.383Z,23.50
2022-10-23T04:39:39.901Z,24.25
2022-10-23T04:42:07.412Z,23.77
2022-10-23T04:44:37.107Z,23.30
2022-10-23T04:47:04.847Z,22.30
2022-10-23T04:49:35.399Z,22.58
2022-10-23T04:52:20.553Z,19.50
2022-10-23T04:55:14.107Z,20.33
2022-10-23T04:57:45.915Z,19.33
2022-10-23T05:00:16.566Z,19.30
2022-10-23T05:02:55.677Z,18.52
2022-10-23T05:05:23.701Z,20.75
2022-10-23T05:08:00.855Z,18.67
2022-10-23T05:10:48.692Z,18.17
2022-10-23T05:13:16.986Z,18.90
2022-10-23T05:15:46.782Z,18.92
2022-10-23T05:18:19.009Z,17.48
2022-10-23T05:20:48.443Z,17.55
2022-10-23T05:23:17.407Z,17.17
2022-10-23T05:25:54.036Z,16.38
2022-10-23T05:28:22.702Z,17.23
2022-10-23T05:30:51.792Z,16.13
2022-10-23T05:33:19.592Z,15.88
2022-10-23T05:35:49.104Z,15.57
2022-10-23T05:38:17.568Z,16.27
2022-10-23T05:40:45.310Z,16.38
2022-10-23T05:43:18.939Z,15.55
2022-10-23T05:45:54.325Z,16.48
2022-10-23T05:48:34.576Z,15.52
2022-10-23T05:51:22.299Z,16.85
2022-10-23T05:53:55.957Z,16.98
2022-10-23T05:56:43.977Z,14.85
2022-10-23T05:59:23.021Z,14.32
2022-10-23T06:01:52.601Z,13.93
2022-10-23T06:04:31.332Z,15.60
2022-10-23T06:07:17.437Z,15.15
2022-10-23T06:09:46.765Z,13.57
2022-10-23T06:12:14.570Z,14.23
2022-10-23T06:14:45.235Z,13.85
2022-10-23T06:17:14.479Z,14.25
2022-10-23T06:19:45.049Z,15.07
2022-10-23T06:22:13.998Z,16.55
2022-10-23T06:24:55.921Z,18.23
2022-10-23T06:27:27.019Z,15.05
2022-10-23T06:29:56.183Z,15.40
2022-10-23T06:32:25.108Z,14.80
2022-10-23T06:35:07.809Z,15.52
2022-10-23T06:37:35.676Z,14.77
2022-10-23T06:40:09.592Z,15.57
2022-10-23T06:42:53.130Z,14.85
2022-10-23T06:45:37.995Z,14.38
2022-10-23T06:48:16.259Z,14.10
2022-10-23T06:50:59.732Z,16.80
2022-10-23T06:53:36.674Z,15.15
2022-10-23T06:56:16.961Z,15.30
2022-10-23T06:58:44.556Z,15.63
2022-10-23T07:01:16.355Z,14.75
2022-10-23T07:03:50.494Z,15.48
2022-10-23T07:06:22.636Z,17.05
2022-10-23T07:08:50.423Z,16.33
2022-10-23T07:11:37.993Z,14.85
2022-10-23T07:14:05.556Z,16.23
2022-10-23T07:16:33.570Z,15.80
2022-10-23T07:19:02.580Z,14.10
2022-10-23T07:21:30.961Z,14.30
2022-10-23T07:24:15.311Z,14.25
2022-10-23T07:26:44.590Z,13.43
2022-10-23T07:29:12.223Z,14.20
2022-10-23T07:31:39.765Z,15.18
2022-10-23T07:34:27.510Z,27.30
2022-10-23T07:37:14.156Z,13.88
2022-10-23T07:39:42.051Z,15.13
2022-10-23T07:42:10.060Z,13.82
2022-10-23T07:44:37.583Z,12.98
2022-10-23T07:47:05.366Z,14.80
2022-10-23T07:49:34.533Z,13.95
2022-10-23T07:54:40.046Z,14.05
2022-10-23T07:57:19.957Z,14.13
2022-10-23T07:59:55.140Z,13.80
2022-10-23T08:02:24.575Z,14.30
2022-10-23T08:04:54.364Z,13.50
2022-10-23T08:07:27.259Z,14.00
2022-10-23T08:09:57.432Z,14.00
2022-10-23T08:12:25.996Z,13.23
2022-10-23T08:14:55.180Z,13.73
2022-10-23T08:17:26.268Z,13.63
2022-10-23T08:19:57.252Z,13.57
2022-10-23T08:22:28.158Z,14.13
2022-10-23T08:24:55.753Z,13.73
2022-10-23T08:27:25.379Z,13.85
2022-10-23T08:29:53.541Z,13.48
2022-10-23T08:32:22.008Z,13.95
2022-10-23T08:34:57.599Z,14.05
2022-10-23T08:37:27.218Z,13.70
2022-10-23T08:39:55.952Z,13.38
2022-10-23T08:42:30.380Z,14.50
2022-10-23T08:45:05.024Z,14.13
2022-10-23T08:47:39.913Z,13.07
2022-10-23T08:50:37.013Z,13.07
2022-10-23T08:53:06.428Z,12.70
2022-10-23T08:55:36.150Z,12.23
2022-10-23T08:58:06.393Z,11.82
2022-10-23T09:00:34.299Z,11.82
2022-10-23T09:03:02.665Z,11.65
2022-10-23T09:05:32.068Z,11.55
2022-10-23T09:08:12.478Z,11.73
2022-10-23T09:10:51.451Z,11.60
2022-10-23T09:13:36.923Z,10.82
2022-10-23T09:16:08.216Z,10.68
2022-10-23T09:18:35.731Z,9.95
2022-10-23T09:21:03.826Z,9.02
2022-10-23T09:23:32.792Z,9.55
2022-10-23T09:26:02.362Z,9.45
2022-10-23T09:28:32.281Z,8.77
2022-10-23T09:31:06.732Z,7.95
2022-10-23T09:33:37.016Z,8.18
2022-10-23T09:36:06.282Z,8.20
2022-10-23T09:38:36.510Z,7.80
2022-10-23T09:41:07.007Z,7.40
2022-10-23T09:43:34.992Z,7.43
2022-10-23T09:46:06.073Z,7.43
2022-10-23T09:48:35.316Z,6.93
2022-10-23T09:51:03.605Z,6.68
2022-10-23T09:53:33.103Z,6.40
2022-10-23T09:56:03.035Z,6.07
2022-10-23T09:58:33.764Z,6.38
2022-10-23T10:01:01.644Z,6.50
2022-10-23T10:03:49.273Z,6.70
2022-10-23T10:06:21.480Z,6.97
2022-10-23T10:08:53.035Z,6.03
2022-10-23T10:11:25.067Z,6.10
2022-10-23T10:14:02.327Z,5.00
2022-10-23T10:16:34.444Z,5.65
2022-10-23T10:19:05.137Z,5.78
2022-10-23T10:21:37.698Z,5.00
2022-10-23T10:24:07.549Z,5.07
2022-10-23T10:26:41.273Z,4.90
2022-10-23T10:29:14.162Z,4.80
2022-10-23T10:31:50.794Z,4.70
2022-10-23T10:34:23.388Z,4.53
2022-10-23T10:36:52.471Z,4.30
2022-10-23T10:39:26.659Z,5.43
2022-10-23T10:42:03.330Z,4.35
2022-10-23T10:44:37.559Z,4.60
2022-10-23T10:47:10.128Z,4.32
2022-10-23T10:49:41.464Z,4.38
2022-10-23T10:52:30.558Z,3.80
2022-10-23T10:55:02.635Z,3.78
2022-10-23T10:57:33.022Z,3.67
2022-10-23T11:00:02.426Z,3.42
2022-10-23T11:02:32.707Z,3.35
2022-10-23T11:05:04.301Z,3.45
2022-10-23T11:07:34.990Z,11.15
2022-10-23T11:10:05.200Z,3.40
2022-10-23T11:12:34.081Z,3.50
2022-10-23T11:15:01.992Z,3.50
2022-10-23T11:17:33.428Z,3.97
2022-10-23T11:20:04.163Z,3.67
2022-10-23T11:22:35.520Z,3.20
2022-10-23T11:25:12.191Z,3.50
2022-10-23T11:27:49.741Z,3.65
2022-10-23T11:30:19.704Z,3.65
2022-10-23T11:33:06.501Z,3.65
2022-10-23T11:35:42.827Z,4.10
2022-10-23T11:38:16.353Z,3.53
2022-10-23T11:40:45.197Z,3.53
2022-10-23T11:43:14.257Z,3.90
2022-10-23T11:45:41.957Z,3.90
2022-10-23T11:48:21.203Z,4.03
2022-10-23T11:50:54.812Z,3.65
2022-10-23T11:53:27.484Z,3.65
2022-10-23T11:55:59.373Z,3.50
2022-10-23T11:58:40.665Z,3.60
2022-10-23T12:01:19.420Z,3.85
2022-10-23T12:03:50.556Z,3.65
2022-10-23T12:06:22.320Z,3.60
2022-10-23T12:08:52.190Z,3.80
2022-10-23T12:11:40.087Z,3.90
2022-10-23T12:14:25.618Z,3.63
2022-10-23T12:16:53.444Z,3.33
2022-10-23T12:19:22.004Z,3.30
2022-10-23T12:21:51.955Z,3.40
2022-10-23T12:24:31.776Z,11.65
2022-10-23T12:27:08.883Z,4.03
2022-10-23T12:29:46.031Z,3.97
2022-10-23T12:32:20.925Z,21.10
2022-10-23T12:34:54.047Z,4.30
2022-10-23T12:37:32.591Z,3.83
2022-10-23T12:40:01.832Z,3.55
2022-10-23T12:42:30.584Z,4.10
2022-10-23T12:45:00.821Z,3.88
2022-10-23T12:47:29.366Z,3.80
2022-10-23T12:49:56.966Z,4.00
2022-10-23T12:52:25.528Z,3.83
2022-10-23T12:54:53.088Z,3.83
2022-10-23T12:57:22.412Z,4.00
2022-10-23T12:59:50.707Z,3.90
2022-10-23T13:02:27.548Z,3.80
2022-10-23T13:04:56.487Z,3.80
2022-10-23T13:07:24.975Z,3.65
2022-10-23T13:09:52.864Z,3.47
2022-10-23T13:12:27.393Z,4.15
2022-10-23T13:14:57.354Z,3.63
2022-10-23T13:17:35.667Z,3.22
2022-10-23T13:20:10.603Z,3.88
2022-10-23T13:22:41.485Z,3.53
2022-10-23T13:25:22.582Z,3.13
2022-10-23T13:27:50.334Z,3.30
2022-10-23T13:30:31.090Z,6.72
2022-10-23T13:33:00.688Z,4.07
2022-10-23T13:35:28.479Z,3.95
2022-10-23T13:37:56.331Z,4.63
2022-10-23T13:40:25.621Z,3.78
2022-10-23T13:42:54.689Z,3.78
2022-10-23T13:45:24.385Z,3.30
2022-10-23T13:47:52.157Z,3.70
2022-10-23T13:50:21.107Z,3.50
2022-10-23T13:52:49.239Z,3.80
2022-10-23T13:55:19.507Z,3.30
2022-10-23T13:57:47.049Z,3.60
2022-10-23T14:00:15.811Z,3.35
2022-10-23T14:02:44.178Z,3.80
2022-10-23T14:05:12.719Z,3.13
2022-10-23T14:07:41.904Z,3.70
2022-10-23T14:10:09.799Z,3.63
2022-10-23T14:12:40.098Z,3.90
2022-10-23T14:15:08.239Z,3.83
2022-10-23T14:17:36.158Z,3.25
2022-10-23T14:20:05.923Z,3.63
2022-10-23T14:22:34.004Z,3.95
2022-10-23T14:25:03.227Z,3.70
2022-10-23T14:27:31.233Z,4.65
2022-10-23T14:29:59.259Z,4.40
2022-10-23T14:32:27.047Z,4.28
2022-10-23T14:34:55.216Z,3.78
2022-10-23T14:37:23.813Z,3.60
2022-10-23T14:39:51.385Z,3.75
2022-10-23T14:42:20.349Z,3.58
2022-10-23T14:44:49.817Z,3.83
2022-10-23T14:47:19.091Z,3.65
2022-10-23T14:49:49.296Z,3.50
2022-10-23T14:52:16.832Z,4.22
2022-10-23T14:54:44.436Z,5.82
2022-10-23T14:57:12.349Z,4.50
2022-10-23T14:59:41.280Z,3.88
2022-10-23T15:02:10.296Z,3.83
2022-10-23T15:04:37.803Z,3.47
2022-10-23T15:07:05.485Z,3.45
2022-10-23T15:09:35.352Z,3.90
2022-10-23T15:12:03.220Z,3.72
2022-10-23T15:14:30.935Z,3.92
2022-10-23T15:16:59.843Z,4.07
2022-10-23T15:19:27.404Z,4.10
2022-10-23T15:21:55.029Z,5.72
2022-10-23T15:24:23.117Z,4.50
2022-10-23T15:26:51.855Z,3.22
2022-10-23T15:29:19.539Z,3.22
2022-10-23T15:31:48.783Z,3.65
2022-10-23T15:34:19.191Z,3.45
2022-10-23T15:36:47.834Z,3.95
2022-10-23T15:39:16.604Z,3.70
2022-10-23T15:41:44.548Z,3.28
2022-10-23T15:44:14.152Z,3.13
2022-10-23T15:46:41.807Z,4.22
2022-10-23T15:49:09.556Z,4.35
2022-10-23T15:51:38.954Z,6.90
2022-10-23T15:54:06.933Z,6.13
2022-10-23T15:56:35.001Z,4.70
2022-10-23T15:59:02.723Z,4.55
2022-10-23T16:01:30.391Z,7.20
2022-10-23T16:03:58.326Z,4.20
2022-10-23T16:06:26.651Z,4.68
2022-10-23T16:08:55.575Z,6.50
2022-10-23T16:11:24.157Z,4.28
2022-10-23T16:13:52.065Z,3.53
2022-10-23T16:16:19.687Z,4.30
2022-10-23T16:18:47.345Z,4.15
2022-10-23T16:21:17.379Z,3.42
2022-10-23T16:23:44.993Z,4.10
2022-10-23T16:26:13.923Z,3.75
2022-10-23T16:28:43.237Z,3.90
2022-10-23T16:31:11.091Z,3.75
2022-10-23T16:33:38.595Z,4.20
2022-10-23T16:36:07.351Z,4.20
2022-10-23T16:38:54.972Z,4.25
2022-10-23T16:41:43.901Z,4.22
2022-10-23T16:44:18.106Z,4.80
2022-10-23T16:46:57.747Z,3.78
2022-10-23T16:49:25.340Z,3.92
2022-10-23T16:51:52.918Z,4.45
2022-10-23T16:54:20.431Z,4.70
2022-10-23T16:56:49.406Z,3.85
2022-10-23T16:59:17.042Z,3.90
2022-10-23T17:01:44.735Z,3.95
2022-10-23T17:04:12.478Z,4.07
2022-10-23T17:06:40.171Z,3.75
2022-10-23T17:09:07.769Z,4.47
2022-10-23T17:11:36.072Z,4.65
2022-10-23T17:14:07.205Z,4.55
2022-10-23T17:16:36.337Z,4.03
2022-10-23T17:19:16.138Z,4.05
2022-10-23T17:21:52.346Z,3.90
2022-10-23T17:24:20.276Z,4.28
2022-10-23T17:26:48.300Z,4.18
2022-10-23T17:29:18.215Z,4.03
2022-10-23T17:31:46.854Z,4.05
2022-10-23T17:34:15.598Z,4.10
2022-10-23T17:36:46.361Z,4.68
2022-10-23T17:39:16.097Z,4.07
2022-10-23T17:41:44.301Z,4.10
2022-10-23T17:44:12.248Z,4.03
2022-10-23T17:46:41.231Z,3.80
2022-10-23T17:49:08.877Z,3.70
2022-10-23T17:51:37.084Z,3.78
2022-10-23T17:54:05.952Z,3.75
2022-10-23T17:56:34.770Z,4.20
2022-10-23T17:59:03.168Z,3.75
2022-10-23T18:01:31.751Z,4.13
2022-10-23T18:04:02.711Z,3.88
2022-10-23T18:06:32.008Z,4.32
2022-10-23T18:09:00.035Z,4.50
2022-10-23T18:11:28.669Z,4.05
2022-10-23T18:13:56.319Z,3.95
2022-10-23T18:16:23.914Z,4.05
2022-10-23T18:18:52.588Z,3.78
2022-10-23T18:21:22.353Z,4.10
2022-10-23T18:23:49.927Z,3.72
2022-10-23T18:26:18.292Z,3.80
2022-10-23T18:28:46.189Z,3.97
2022-10-23T18:31:14.281Z,3.90
2022-10-23T18:33:41.897Z,3.83
2022-10-23T18:36:13.306Z,4.05
2022-10-23T18:38:42.261Z,3.47
2022-10-23T18:41:09.872Z,3.20
2022-10-23T18:43:43.682Z,3.85
2022-10-23T18:46:12.056Z,3.60
2022-10-23T18:48:39.837Z,3.13
2022-10-23T18:51:15.614Z,3.33
2022-10-23T18:53:46.892Z,3.63
2022-10-23T18:56:14.885Z,3.58
2022-10-23T18:58:42.490Z,3.60
2022-10-23T19:01:10.099Z,3.60
2022-10-23T19:03:37.784Z,3.42
2022-10-23T19:06:06.679Z,3.65
2022-10-23T19:08:36.016Z,3.67
2022-10-23T19:11:06.403Z,3.80
2022-10-23T19:13:38.989Z,3.65
2022-10-23T19:16:08.311Z,3.70
2022-10-23T19:18:37.500Z,3.58
2022-10-23T19:21:05.978Z,3.70
2022-10-23T19:23:36.245Z,3.80
2022-10-23T19:26:08.779Z,4.22
2022-10-23T19:28:37.826Z,6.15
2022-10-23T19:31:07.489Z,5.20
2022-10-23T19:33:38.788Z,5.18
2022-10-23T19:36:08.983Z,4.30
2022-10-23T19:38:41.353Z,4.10
2022-10-23T19:41:10.554Z,3.95
2022-10-23T19:43:38.628Z,4.15
2022-10-23T19:46:09.473Z,3.45
2022-10-23T19:48:42.288Z,3.60
2022-10-23T19:51:09.933Z,3.72
2022-10-23T19:53:37.536Z,3.92
2022-10-23T19:56:06.026Z,3.85
2022-10-23T19:58:35.004Z,3.55
2022-10-23T20:01:07.605Z,4.00
2022-10-23T20:03:35.264Z,3.75
2022-10-23T20:06:02.839Z,3.92
2022-10-23T20:08:32.779Z,4.13
2022-10-23T20:11:03.170Z,4.40
2022-10-23T20:13:30.936Z,4.20
2022-10-23T20:15:59.905Z,4.35
2022-10-23T20:18:28.135Z,4.57
2022-10-23T20:20:55.742Z,4.97
2022-10-23T20:23:23.413Z,4.80
2022-10-23T20:25:50.960Z,4.55
2022-10-23T20:28:18.700Z,4.57
2022-10-23T20:30:46.440Z,5.18
2022-10-23T20:33:15.422Z,4.15
2022-10-23T20:35:43.833Z,4.47
2022-10-23T20:38:11.417Z,4.10
2022-10-23T20:40:39.124Z,4.90
2022-10-23T20:43:06.695Z,4.65
2022-10-23T20:45:34.783Z,4.32
2022-10-23T20:48:02.489Z,4.25
2022-10-23T20:50:31.315Z,4.45
2022-10-23T20:52:58.839Z,4.88
2022-10-23T20:55:26.352Z,5.00
2022-10-23T20:57:54.086Z,4.65
2022-10-23T21:00:21.758Z,4.88
2022-10-23T21:02:51.340Z,4.82
2022-10-23T21:05:19.950Z,5.38
2022-10-23T21:07:48.790Z,4.57
2022-10-23T21:10:16.424Z,4.80
2022-10-23T21:12:44.214Z,5.20
2022-10-23T21:15:12.135Z,5.13
2022-10-23T21:17:40.831Z,4.65
2022-10-23T21:20:08.601Z,4.82
2022-10-23T21:22:36.276Z,4.82
2022-10-23T21:25:05.529Z,4.57
2022-10-23T21:27:33.161Z,4.65
2022-10-23T21:30:00.708Z,4.70
2022-10-23T21:32:28.337Z,5.07
2022-10-23T21:34:55.976Z,4.50
2022-10-23T21:37:24.886Z,5.20
2022-10-23T21:39:52.502Z,3.78
2022-10-23T21:42:21.590Z,4.18
2022-10-23T21:44:49.362Z,4.57
2022-10-23T21:47:16.902Z,4.53
2022-10-23T21:49:44.447Z,4.22
2022-10-23T21:52:14.004Z,4.40
2022-10-23T21:54:43.785Z,4.32
2022-10-23T21:57:13.623Z,4.07
2022-10-23T21:59:42.519Z,4.50
2022-10-23T22:02:10.472Z,4.40
2022-10-23T22:04:38.599Z,4.40
2022-10-23T22:07:06.341Z,4.00
2022-10-23T22:09:34.693Z,3.33
2022-10-23T22:12:02.433Z,3.20
2022-10-23T22:14:30.024Z,4.28
2022-10-23T22:16:58.967Z,3.58
2022-10-23T22:19:26.688Z,3.15
2022-10-23T22:21:54.347Z,3.08
2022-10-23T22:24:21.958Z,2.90
2022-10-23T22:26:51.063Z,2.78
2022-10-23T22:29:19.364Z,2.80
2022-10-23T22:31:48.873Z,2.45
2022-10-23T22:34:25.389Z,2.50
2022-10-23T22:37:01.683Z,2.90
2022-10-23T22:39:29.302Z,3.30
2022-10-23T22:41:58.533Z,2.70
2022-10-23T22:44:26.194Z,2.90
2022-10-23T22:46:53.759Z,2.58
2022-10-23T22:49:22.628Z,2.30
2022-10-23T22:51:50.174Z,2.33
2022-10-23T22:54:17.685Z,2.35
2022-10-23T22:56:45.236Z,2.30
2022-10-23T22:59:12.820Z,2.40
2022-10-23T23:01:41.265Z,2.20
2022-10-23T23:04:25.920Z,2.63
2022-10-23T23:06:55.106Z,2.35
2022-10-23T23:09:22.661Z,2.00
2022-10-23T23:11:52.524Z,2.00
2022-10-23T23:14:23.378Z,2.10
2022-10-23T23:16:52.766Z,2.10
2022-10-23T23:19:21.360Z,1.90
2022-10-23T23:21:48.870Z,2.10
2022-10-23T23:24:17.763Z,1.70
2022-10-23T23:26:45.327Z,1.98
2022-10-23T23:29:13.611Z,1.30
2022-10-23T23:31:41.115Z,1.75
2022-10-23T23:34:08.664Z,1.77
2022-10-23T23:36:36.193Z,1.52
2022-10-23T23:41:38.704Z,1.65
2022-10-23T23:44:08.217Z,1.50
2022-10-23T23:46:36.784Z,1.35
2022-10-23T23:49:04.459Z,1.42
2022-10-23T23:51:32.416Z,1.52
2022-10-23T23:53:59.970Z,1.80
2022-10-23T23:56:28.070Z,1.60
2022-10-23T23:58:58.169Z,1.90
